Aérodrome :
LOGIN :

S'inscrire | Disclaimer

   EN    FR    IT 

 










Légende :    VFR   VFR Marginal   IFR   IFR Intensif   IFR Très Intensif
Visi : 
Plafond : 
>= 8 km
>= 3000ft
5 à 8 km
1000 à 3000 ft
1500m à 5 km
500 à 1000 ft
800 à 1500m
200 à 500 ft
< 800m
< 200 ft
Symboles :   Orages  Brouillard  Fortes neiges  Fortes précipitations  Vent > 20 kt
SIGMETs :   Divers  Orages  Givrage  Turbulence  Onde Orograph.  Cendres Volcan.






- Altitude de l'aérodrome : 1910 ft
- Code IATA : RDZ


LFCR - Rodez

DERNIER METAR :
  • 141830Z AUTO 22004KT 9999 BKN016 BKN160 OVC210 03/02 Q0997 BECMG OVC004

METARs EXPIRÉS :
  • 141800Z AUTO 25003KT 9999 OVC014 03/02 Q0997 BECMG BKN006 BKN012
  • 141730Z AUTO 24003KT 9999 FEW006 BKN013 OVC018 03/03 Q0997 BECMG BKN006 BKN012
  • 141700Z AUTO VRB02KT 9999 BKN007 OVC012 03/03 Q0997 TEMPO SCT045TCU
  • 141630Z AUTO VRB02KT 9999 BKN005 BKN010 OVC014 03/02 Q0997 TEMPO SCT045TCU
  • 141600Z AUTO 23004KT 8000 BKN007 OVC011 03/02 Q0997 TEMPO SCT045TCU

TAF TAF LFCR
Valide du 14 à 18h jusqu'au 15 à 18h UTC


141700Z 1418/1518 VRB03KT 9999 BKN006 BKN012
BECMG 1420/1422 OVC004
TEMPO 1500/1507 4000 BR
PROB30
TEMPO 1500/1506 0500 FG VV///
BECMG 1507/1508 BKN010
BECMG 1509/1511 SCT030
TEMPO 1514/1516 SCT050TCU



MET'MAP, la Météo Aéronautique d'un coup d'oeil ! - Copyright ORBIFLY Décembre 2007 - Disclaimer

ORBIFLY MET'MAP TEAM :

Programmation & Développement : Alexandra Zaïnal
Conception & Développement : Baudouin d'Aumeries
Co-Programmation & Développement : Marc-Olivier Méhu
Soutien technique & logistique : Manuel Goepfert

Contact : metmap@orbifly.com




SOURCES & CREDITS :

   NOAA